Bethany, Oklahoma
Current Conditions -  °F | °C
As of 3:53 PM on Monday 20 Oct 2014 (Local Time) from KPWA Reporting Station
Broken Clouds Broken Clouds  
Wind Chill: 80°   Ceiling: 5500
Heat Index: 81°   Visibility: 9mi
Dew Point: 61°   Wind: 3mph
Humidity: 52%   Direction: 30°NNE
Pressure: 30.01"   Gusts: NA
Location:  35.51°N, 97.63°W
Report Text: KPWA 202053Z 03003KT 9SM FEW040 BKN055 27/16 A3001 RMK AO2 SLP151 T02670161 56015
Loading
Personal Weather Stations






























Interactive Weather Map
Tropical Storm Tracking
New forecast layout! Learn more

10-Day Weather Forecast

Advertisements
Track Severe Weather on mobile